Time;durP1;ratioP1;P1;durP2;ratioP2;P2;SDS_P1;SDS_P2;PMS_P1;PMS_P2;Temp;Humidity;BMP_temperature;BMP_pressure;BME280_temperature;BME280_humidity;BME280_pressure;Samples;Min_cycle;Max_cycle;Signal;HPM_P1;HPM_P2
2022/05/10 00:01:05;;;;;;;;;;;;;;;;;;5017909;28;19929;-62
2022/05/10 00:03:31;;;;;;;;;;;;;;;;;;5017373;28;19925;-62
2022/05/10 00:05:56;;;;;;;;;;;;;;;;;;5017751;28;20008;-62
2022/05/10 00:08:23;;;;;;;;;;;;;;;;;;5018135;28;19961;-62
2022/05/10 00:10:49;;;;;;;;;;;;;;;;;;5017480;28;19917;-62
2022/05/10 00:13:16;;;;;;;;;;;;;;;;;;5018019;28;19988;-62
2022/05/10 00:15:42;;;;;;;;;;;;;;;;;;5017351;28;19925;-62
2022/05/10 00:18:08;;;;;;;;;;;;;;;;;;5017231;28;19921;-62
2022/05/10 00:20:34;;;;;;;;;;;;;;;;;;5017475;28;19929;-62
2022/05/10 00:23:00;;;;;;;;;;;;;;;;;;4999684;28;19983;-62
2022/05/10 00:25:26;;;;;;;;;;;;;;;;;;5016836;28;19925;-62
2022/05/10 00:27:52;;;;;;;;;;;;;;;;;;5017654;28;19939;-62
2022/05/10 00:30:18;;;;;;;;;;;;;;;;;;5016943;28;19923;-62
2022/05/10 00:32:45;;;;;;;;;;;;;;;;;;5016679;28;19917;-62
2022/05/10 00:35:15;;;;;;;;;;;;;;;;;;5017281;28;19945;-62
2022/05/10 00:37:41;;;;;;;;;;;;;;;;;;5017449;28;19929;-62
2022/05/10 00:40:08;;;;;;;;;;;;;;;;;;5016570;28;19921;-62
2022/05/10 00:42:34;;;;;;;;;;;;;;;;;;5016707;28;19971;-62
2022/05/10 00:44:59;;;;;;;;;;;;;;;;;;5017066;28;19933;-62
2022/05/10 00:47:25;;;;;;;;;;;;;;;;;;5016084;28;19951;-62
2022/05/10 00:49:51;;;;;;;;;;;;;;;;;;5016448;28;20162;-62
2022/05/10 00:52:17;;;;;;;;;;;;;;;;;;5017060;28;19984;-62
2022/05/10 00:54:43;;;;;;;;;;;;;;;;;;5014607;28;20368;-62
2022/05/10 00:57:09;;;;;;;;;;;;;;;;;;5016502;28;19971;-62
2022/05/10 00:59:35;;;;;;;;;;;;;;;;;;5015683;28;19921;-62
2022/05/10 01:02:01;;;;;;;;;;;;;;;;;;5015801;28;19949;-62
2022/05/10 01:04:27;;;;;;;;;;;;;;;;;;5016582;28;19921;-62
2022/05/10 01:06:53;;;;;;;;;;;;;;;;;;5015946;28;19921;-62
2022/05/10 01:09:19;;;;;;;;;;;;;;;;;;5015888;28;19917;-62
2022/05/10 01:11:45;;;;;;;;;;;;;;;;;;5015854;28;19940;-62
2022/05/10 01:14:11;;;;;;;;;;;;;;;;;;5015697;28;19928;-62
2022/05/10 01:16:38;;;;;;;;;;;;;;;;;;4997892;28;19961;-62
2022/05/10 01:19:04;;;;;;;;;;;;;;;;;;5015775;28;19929;-62
2022/05/10 01:21:30;;;;;;;;;;;;;;;;;;5016183;28;19917;-62
2022/05/10 01:23:56;;;;;;;;;;;;;;;;;;5015423;28;19917;-62
2022/05/10 01:26:22;;;;;;;;;;;;;;;;;;5015530;28;19921;-62
2022/05/10 01:28:48;;;;;;;;;;;;;;;;;;5015745;28;20000;-62
2022/05/10 01:31:14;;;;;;;;;;;;;;;;;;5014869;28;19964;-62
2022/05/10 01:33:40;;;;;;;;;;;;;;;;;;5015661;28;19925;-62
2022/05/10 01:36:06;;;;;;;;;;;;;;;;;;4994807;28;20009;-62
2022/05/10 01:38:32;;;;;;;;;;;;;;;;;;5001772;28;20344;-62
2022/05/10 01:40:58;;;;;;;;;;;;;;;;;;5015439;28;19921;-62
2022/05/10 01:43:24;;;;;;;;;;;;;;;;;;5015184;28;19917;-62
2022/05/10 01:45:50;;;;;;;;;;;;;;;;;;5013165;28;19921;-62
2022/05/10 01:48:16;;;;;;;;;;;;;;;;;;5015336;28;19917;-62
2022/05/10 01:50:42;;;;;;;;;;;;;;;;;;5015418;28;19986;-62
2022/05/10 01:53:08;;;;;;;;;;;;;;;;;;5015088;28;19917;-62
2022/05/10 01:55:34;;;;;;;;;;;;;;;;;;5014933;28;19917;-62
2022/05/10 01:58:01;;;;;;;;;;;;;;;;;;5013804;28;19921;-62
2022/05/10 02:00:27;;;;;;;;;;;;;;;;;;5014698;28;19921;-62
2022/05/10 02:02:53;;;;;;;;;;;;;;;;;;5014916;28;19921;-62
2022/05/10 02:05:19;;;;;;;;;;;;;;;;;;5015046;28;19967;-62
2022/05/10 02:07:45;;;;;;;;;;;;;;;;;;5014644;28;19927;-62
2022/05/10 02:10:11;;;;;;;;;;;;;;;;;;5014767;28;19933;-62
2022/05/10 02:12:39;;;;;;;;;;;;;;;;;;5014406;28;19917;-62
2022/05/10 02:15:05;;;;;;;;;;;;;;;;;;5014341;28;19917;-61
2022/05/10 02:17:31;;;;;;;;;;;;;;;;;;5014685;28;19921;-61
2022/05/10 02:19:57;;;;;;;;;;;;;;;;;;5013362;28;19922;-61
2022/05/10 02:22:24;;;;;;;;;;;;;;;;;;5013277;28;19917;-61
2022/05/10 02:24:50;;;;;;;;;;;;;;;;;;5014703;28;20023;-61
2022/05/10 02:27:16;;;;;;;;;;;;;;;;;;5013297;28;19957;-61
2022/05/10 02:29:42;;;;;;;;;;;;;;;;;;5014091;28;19944;-61
2022/05/10 02:34:53;;;;;;;;;;;;;;;;;;5014313;28;20253;-61
2022/05/10 02:37:19;;;;;;;;;;;;;;;;;;5012967;28;20051;-61
2022/05/10 02:39:45;;;;;;;;;;;;;;;;;;5013115;28;19944;-61
2022/05/10 02:42:12;;;;;;;;;;;;;;;;;;5014536;28;20004;-61
2022/05/10 02:44:39;;;;;;;;;;;;;;;;;;5014435;28;20008;-61
2022/05/10 02:47:05;;;;;;;;;;;;;;;;;;5012901;28;19924;-61
2022/05/10 02:49:31;;;;;;;;;;;;;;;;;;5014812;28;19925;-61
2022/05/10 02:51:57;;;;;;;;;;;;;;;;;;5014165;28;19925;-61
2022/05/10 02:54:23;;;;;;;;;;;;;;;;;;5014575;28;19921;-61
2022/05/10 02:56:49;;;;;;;;;;;;;;;;;;5014537;28;19924;-62
2022/05/10 02:59:15;;;;;;;;;;;;;;;;;;5014154;28;20015;-62
2022/05/10 03:01:41;;;;;;;;;;;;;;;;;;5014529;28;19925;-62
2022/05/10 03:04:08;;;;;;;;;;;;;;;;;;5014373;28;19979;-62
2022/05/10 03:06:33;;;;;;;;;;;;;;;;;;5013828;28;19922;-62
2022/05/10 03:09:00;;;;;;;;;;;;;;;;;;5013718;28;19979;-62
2022/05/10 03:11:27;;;;;;;;;;;;;;;;;;5014206;28;19917;-62
2022/05/10 03:13:52;;;;;;;;;;;;;;;;;;5014445;28;19919;-62
2022/05/10 03:16:18;;;;;;;;;;;;;;;;;;5013521;28;20048;-62
2022/05/10 03:18:44;;;;;;;;;;;;;;;;;;5013711;28;19961;-62
2022/05/10 03:21:10;;;;;;;;;;;;;;;;;;5012722;28;19975;-62
2022/05/10 03:23:36;;;;;;;;;;;;;;;;;;5013118;28;19917;-62
2022/05/10 03:26:02;;;;;;;;;;;;;;;;;;5014057;28;19924;-62
2022/05/10 03:28:28;;;;;;;;;;;;;;;;;;5014086;28;19917;-62
2022/05/10 03:30:54;;;;;;;;;;;;;;;;;;5011992;28;19947;-62
2022/05/10 03:33:20;;;;;;;;;;;;;;;;;;5014153;28;20168;-62
2022/05/10 03:35:47;;;;;;;;;;;;;;;;;;5014028;28;19983;-62
2022/05/10 03:38:13;;;;;;;;;;;;;;;;;;5013048;28;19926;-62
2022/05/10 03:40:39;;;;;;;;;;;;;;;;;;5013807;28;19917;-62
2022/05/10 03:43:05;;;;;;;;;;;;;;;;;;5013736;28;19917;-62
2022/05/10 03:45:31;;;;;;;;;;;;;;;;;;5011902;28;19976;-62
2022/05/10 03:47:57;;;;;;;;;;;;;;;;;;5013109;28;19921;-62
2022/05/10 03:50:23;;;;;;;;;;;;;;;;;;5013183;28;20336;-61
2022/05/10 03:52:49;;;;;;;;;;;;;;;;;;5012954;28;19918;-61
2022/05/10 03:55:15;;;;;;;;;;;;;;;;;;5013224;28;20004;-61
2022/05/10 03:57:41;;;;;;;;;;;;;;;;;;5013600;28;19925;-61
2022/05/10 04:00:07;;;;;;;;;;;;;;;;;;5012618;28;19947;-61
2022/05/10 04:02:33;;;;;;;;;;;;;;;;;;4995345;28;19925;-61
2022/05/10 04:05:00;;;;;;;;;;;;;;;;;;5013478;28;19940;-61
2022/05/10 04:07:26;;;;;;;;;;;;;;;;;;5012306;28;19929;-61
2022/05/10 04:09:52;;;;;;;;;;;;;;;;;;5011402;28;20356;-61
2022/05/10 04:12:18;;;;;;;;;;;;;;;;;;5013212;28;19921;-62
2022/05/10 04:14:44;;;;;;;;;;;;;;;;;;5012381;28;19918;-62
2022/05/10 04:17:10;;;;;;;;;;;;;;;;;;5013538;28;19968;-62
2022/05/10 04:19:36;;;;;;;;;;;;;;;;;;5013039;28;19921;-62
2022/05/10 04:22:02;;;;;;;;;;;;;;;;;;5012704;28;19917;-62
2022/05/10 04:24:28;;;;;;;;;;;;;;;;;;5013053;28;19939;-62
2022/05/10 04:26:54;;;;;;;;;;;;;;;;;;5012560;28;19925;-62
2022/05/10 04:29:20;;;;;;;;;;;;;;;;;;5012259;28;20467;-62
2022/05/10 04:31:47;;;;;;;;;;;;;;;;;;5013109;28;19917;-62
2022/05/10 04:34:13;;;;;;;;;;;;;;;;;;5013054;28;19917;-62
2022/05/10 04:36:39;;;;;;;;;;;;;;;;;;5015938;28;19970;-62
2022/05/10 04:39:04;;;;;;;;;;;;;;;;;;5016314;28;19929;-62
2022/05/10 04:41:31;;;;;;;;;;;;;;;;;;5016381;28;19925;-62
2022/05/10 04:43:57;;;;;;;;;;;;;;;;;;5015505;28;19924;-61
2022/05/10 04:46:23;;;;;;;;;;;;;;;;;;5015977;28;19917;-61
2022/05/10 04:48:49;;;;;;;;;;;;;;;;;;5016285;28;20482;-61
2022/05/10 04:51:15;;;;;;;;;;;;;;;;;;5015390;28;19984;-61
2022/05/10 04:53:41;;;;;;;;;;;;;;;;;;5015886;28;20367;-62
2022/05/10 04:56:07;;;;;;;;;;;;;;;;;;5015895;28;19917;-62
2022/05/10 04:58:33;;;;;;;;;;;;;;;;;;5015192;28;19922;-62
2022/05/10 05:01:00;;;;;;;;;;;;;;;;;;5015898;28;19917;-62
2022/05/10 05:03:26;;;;;;;;;;;;;;;;;;5016028;28;19917;-62
2022/05/10 05:05:52;;;;;;;;;;;;;;;;;;5015534;28;19928;-62
2022/05/10 05:08:18;;;;;;;;;;;;;;;;;;5015399;28;19918;-62
2022/05/10 05:10:44;;;;;;;;;;;;;;;;;;5015653;28;19924;-62
2022/05/10 05:13:10;;;;;;;;;;;;;;;;;;5015213;28;19917;-61
2022/05/10 05:15:36;;;;;;;;;;;;;;;;;;5015667;28;19917;-61
2022/05/10 05:18:03;;;;;;;;;;;;;;;;;;5015633;28;19921;-61
2022/05/10 05:20:29;;;;;;;;;;;;;;;;;;5011171;28;19918;-61
2022/05/10 05:22:56;;;;;;;;;;;;;;;;;;5014806;28;20736;-61
2022/05/10 05:25:22;;;;;;;;;;;;;;;;;;5014303;28;19922;-62
2022/05/10 05:27:48;;;;;;;;;;;;;;;;;;5015103;28;19952;-62
2022/05/10 05:30:14;;;;;;;;;;;;;;;;;;5015265;28;20023;-62
2022/05/10 05:32:40;;;;;;;;;;;;;;;;;;5015859;28;19926;-62
2022/05/10 05:35:06;;;;;;;;;;;;;;;;;;5014089;28;19917;-62
2022/05/10 05:37:32;;;;;;;;;;;;;;;;;;5016159;28;20408;-62
2022/05/10 05:39:58;;;;;;;;;;;;;;;;;;5015291;28;19928;-62
2022/05/10 05:42:24;;;;;;;;;;;;;;;;;;5015024;28;19921;-62
2022/05/10 05:44:50;;;;;;;;;;;;;;;;;;5015256;28;19926;-62
2022/05/10 05:47:16;;;;;;;;;;;;;;;;;;5014558;28;19967;-62
2022/05/10 05:49:43;;;;;;;;;;;;;;;;;;5014698;28;19979;-62
2022/05/10 05:52:09;;;;;;;;;;;;;;;;;;5015320;28;19917;-62
2022/05/10 05:54:35;;;;;;;;;;;;;;;;;;5015142;28;19980;-62
2022/05/10 05:57:01;;;;;;;;;;;;;;;;;;5015069;28;19952;-62
2022/05/10 05:59:27;;;;;;;;;;;;;;;;;;5015424;28;19947;-62
2022/05/10 06:01:53;;;;;;;;;;;;;;;;;;5013687;28;20011;-62
2022/05/10 06:04:19;;;;;;;;;;;;;;;;;;5015283;28;19980;-63
2022/05/10 06:06:45;;;;;;;;;;;;;;;;;;5015151;28;19925;-62
2022/05/10 06:09:11;;;;;;;;;;;;;;;;;;5015086;28;19947;-62
2022/05/10 06:11:38;;;;;;;;;;;;;;;;;;5013456;28;19918;-60
2022/05/10 06:14:04;;;;;;;;;;;;;;;;;;5013640;28;19917;-63
2022/05/10 06:16:30;;;;;;;;;;;;;;;;;;5015225;28;20356;-64
2022/05/10 06:18:56;;;;;;;;;;;;;;;;;;5014549;28;19995;-64
2022/05/10 06:21:22;;;;;;;;;;;;;;;;;;5015369;28;19917;-63
2022/05/10 06:23:48;;;;;;;;;;;;;;;;;;5017383;28;19917;-63
2022/05/10 06:26:15;;;;;;;;;;;;;;;;;;5000999;28;19964;-65
2022/05/10 06:28:41;;;;;;;;;;;;;;;;;;5015824;28;19925;-64
2022/05/10 06:31:07;;;;;;;;;;;;;;;;;;5013869;28;19968;-63
2022/05/10 06:33:33;;;;;;;;;;;;;;;;;;5014069;28;20280;-63
2022/05/10 06:36:01;;;;;;;;;;;;;;;;;;5012385;28;19924;-63
2022/05/10 06:38:30;;;;;;;;;;;;;;;;;;4991726;28;19921;-63
2022/05/10 06:40:56;;;;;;;;;;;;;;;;;;5013546;28;19928;-63
2022/05/10 06:43:22;;;;;;;;;;;;;;;;;;5012448;28;19922;-63
2022/05/10 06:45:48;;;;;;;;;;;;;;;;;;5013574;28;19939;-63
2022/05/10 06:48:14;;;;;;;;;;;;;;;;;;5013172;28;19917;-63
2022/05/10 06:50:40;;;;;;;;;;;;;;;;;;5011965;28;19925;-65
2022/05/10 06:53:06;;;;;;;;;;;;;;;;;;5013688;28;19930;-64
2022/05/10 06:55:32;;;;;;;;;;;;;;;;;;5012753;28;20277;-64
2022/05/10 06:57:57;;;;;;;;;;;;;;;;;;5011887;28;19955;-64
2022/05/10 07:00:23;;;;;;;;;;;;;;;;;;5012151;28;19952;-64
2022/05/10 07:02:49;;;;;;;;;;;;;;;;;;5014775;28;19918;-63
2022/05/10 07:05:15;;;;;;;;;;;;;;;;;;5012580;28;19963;-63
2022/05/10 07:07:41;;;;;;;;;;;;;;;;;;5012849;28;19929;-64
2022/05/10 07:10:08;;;;;;;;;;;;;;;;;;5013816;28;19937;-65
2022/05/10 07:12:34;;;;;;;;;;;;;;;;;;5014905;28;19918;-65
2022/05/10 07:15:00;;;;;;;;;;;;;;;;;;5014293;28;19925;-64
2022/05/10 07:17:26;;;;;;;;;;;;;;;;;;5010644;28;19917;-63
2022/05/10 07:19:52;;;;;;;;;;;;;;;;;;5010281;28;19948;-63
2022/05/10 07:22:18;;;;;;;;;;;;;;;;;;5011939;28;19983;-64
2022/05/10 07:24:44;;;;;;;;;;;;;;;;;;5011418;28;19928;-63
2022/05/10 07:27:10;;;;;;;;;;;;;;;;;;5009606;28;19917;-64
2022/05/10 07:29:36;;;;;;;;;;;;;;;;;;5010557;28;20036;-64
2022/05/10 07:32:02;;;;;;;;;;;;;;;;;;5011974;28;20004;-65
2022/05/10 07:34:28;;;;;;;;;;;;;;;;;;5011895;28;19917;-66
2022/05/10 07:36:54;;;;;;;;;;;;;;;;;;5017678;28;19948;-65
2022/05/10 07:39:21;;;;;;;;;;;;;;;;;;5014106;28;19922;-65
2022/05/10 07:41:49;;;;;;;;;;;;;;;;;;5012242;28;19925;-64
2022/05/10 07:44:14;;;;;;;;;;;;;;;;;;5013692;28;20054;-63
2022/05/10 07:46:40;;;;;;;;;;;;;;;;;;5011618;28;19961;-64
2022/05/10 07:49:06;;;;;;;;;;;;;;;;;;5011141;28;19917;-64
2022/05/10 07:51:32;;;;;;;;;;;;;;;;;;5010662;28;19992;-64
2022/05/10 07:53:58;;;;;;;;;;;;;;;;;;5006877;28;19921;-64
2022/05/10 07:56:24;;;;;;;;;;;;;;;;;;5005918;28;19918;-68
2022/05/10 07:58:50;;;;;;;;;;;;;;;;;;5010403;28;20647;-67
2022/05/10 08:01:16;;;;;;;;;;;;;;;;;;5007588;28;19917;-69
2022/05/10 08:03:43;;;;;;;;;;;;;;;;;;5008589;28;19944;-69
2022/05/10 08:06:09;;;;;;;;;;;;;;;;;;5010970;28;20655;-68
2022/05/10 08:08:35;;;;;;;;;;;;;;;;;;5004899;28;19917;-66
2022/05/10 08:11:01;;;;;;;;;;;;;;;;;;5011466;28;20005;-66
2022/05/10 08:13:27;;;;;;;;;;;;;;;;;;5007596;28;19944;-65
2022/05/10 08:15:54;;;;;;;;;;;;;;;;;;5003440;28;19917;-65
2022/05/10 08:18:20;;;;;;;;;;;;;;;;;;5012625;28;19980;-65
2022/05/10 08:20:46;;;;;;;;;;;;;;;;;;5017323;28;19925;-65
2022/05/10 08:23:12;;;;;;;;;;;;;;;;;;5017731;28;19918;-65
2022/05/10 08:25:38;;;;;;;;;;;;;;;;;;5024601;28;20461;-64
2022/05/10 08:28:04;;;;;;;;;;;;;;;;;;5019150;28;19917;-66
2022/05/10 08:30:30;;;;;;;;;;;;;;;;;;5014852;28;20020;-66
2022/05/10 08:32:56;;;;;;;;;;;;;;;;;;5010305;28;20022;-66
2022/05/10 08:35:22;;;;;;;;;;;;;;;;;;5017397;28;19960;-65
2022/05/10 08:37:48;;;;;;;;;;;;;;;;;;5006646;28;20288;-65
2022/05/10 08:40:20;;;;;;;;;;;;;;;;;;5016132;28;19928;-66
2022/05/10 08:42:46;;;;;;;;;;;;;;;;;;5158777;23;19972;-66
2022/05/10 08:45:12;;;;;;;;;;;;;;;;;;5016266;28;19926;-65
2022/05/10 08:47:38;;;;;;;;;;;;;;;;;;5015553;28;20052;-66
2022/05/10 08:50:04;;;;;;;;;;;;;;;;;;5013115;28;19944;-64
2022/05/10 08:52:34;;;;;;;;;;;;;;;;;;5010119;28;20044;-66
2022/05/10 08:55:00;;;;;;;;;;;;;;;;;;5014610;28;19918;-65
2022/05/10 08:57:26;;;;;;;;;;;;;;;;;;5009881;28;19918;-64
2022/05/10 08:59:52;;;;;;;;;;;;;;;;;;5014105;28;19921;-64
2022/05/10 09:02:18;;;;;;;;;;;;;;;;;;5019898;28;19925;-66
2022/05/10 09:04:45;;;;;;;;;;;;;;;;;;5009936;28;19918;-67
2022/05/10 09:07:11;;;;;;;;;;;;;;;;;;5014462;28;19918;-65
2022/05/10 09:09:37;;;;;;;;;;;;;;;;;;5016548;28;19921;-64
2022/05/10 09:12:03;;;;;;;;;;;;;;;;;;5016992;28;19979;-66
2022/05/10 09:14:29;;;;;;;;;;;;;;;;;;5020148;28;19921;-64
2022/05/10 09:19:24;;;;;;;;;;;;;;;;;;5031270;28;19928;-64
2022/05/10 09:21:50;;;;;;;;;;;;;;;;;;5264849;22;19904;-63
2022/05/10 09:24:16;;;;;;;;;;;;;;;;;;5084901;22;19995;-63
2022/05/10 09:26:42;;;;;;;;;;;;;;;;;;5052029;28;20345;-64
2022/05/10 09:29:08;;;;;;;;;;;;;;;;;;5053759;28;19920;-64
2022/05/10 09:37:04;;;;;;;;;;;;;;;;;;5049149;28;20286;-65
2022/05/10 09:39:30;;;;;;;;;;;;;;;;;;5034005;28;19921;-65
2022/05/10 09:41:56;;;;;;;;;;;;;;;;;;5052419;28;19984;-64
2022/05/10 09:44:22;;;;;;;;;;;;;;;;;;5042890;28;19916;-64
2022/05/10 09:46:48;;;;;;;;;;;;;;;;;;5041566;28;19917;-64
2022/05/10 09:49:14;;;;;;;;;;;;;;;;;;5050209;28;19974;-64
2022/05/10 09:51:44;;;;;;;;;;;;;;;;;;5045462;28;20375;-64
2022/05/10 09:54:10;;;;;;;;;;;;;;;;;;5056693;28;20532;-65
2022/05/10 09:56:36;;;;;;;;;;;;;;;;;;5049540;28;20031;-64
2022/05/10 09:59:02;;;;;;;;;;;;;;;;;;5035164;28;19917;-65
2022/05/10 10:01:29;;;;;;;;;;;;;;;;;;5046434;28;20412;-65
2022/05/10 10:03:54;;;;;;;;;;;;;;;;;;5048282;28;19934;-65
2022/05/10 10:06:20;;;;;;;;;;;;;;;;;;5042982;28;19921;-64
2022/05/10 10:08:46;;;;;;;;;;;;;;;;;;5052395;28;19999;-63
2022/05/10 10:11:12;;;;;;;;;;;;;;;;;;5042138;28;19975;-66
2022/05/10 10:13:38;;;;;;;;;;;;;;;;;;5044496;28;20001;-64
2022/05/10 10:16:04;;;;;;;;;;;;;;;;;;5040079;28;19925;-65
2022/05/10 10:18:30;;;;;;;;;;;;;;;;;;5036295;28;19917;-65
2022/05/10 10:20:56;;;;;;;;;;;;;;;;;;5052894;28;19920;-66
2022/05/10 10:23:22;;;;;;;;;;;;;;;;;;5032301;28;19917;-64
2022/05/10 10:25:48;;;;;;;;;;;;;;;;;;5036364;28;19921;-64
2022/05/10 10:28:15;;;;;;;;;;;;;;;;;;5039446;28;20016;-65
2022/05/10 10:30:40;;;;;;;;;;;;;;;;;;5021797;28;19943;-65
2022/05/10 10:33:07;;;;;;;;;;;;;;;;;;5047059;28;19916;-64
2022/05/10 10:35:33;;;;;;;;;;;;;;;;;;5051154;28;19920;-65
2022/05/10 10:37:59;;;;;;;;;;;;;;;;;;5034359;28;19955;-65
2022/05/10 10:40:25;;;;;;;;;;;;;;;;;;5046681;28;20395;-65
2022/05/10 10:42:50;;;;;;;;;;;;;;;;;;5042576;28;19931;-65
2022/05/10 10:45:16;;;;;;;;;;;;;;;;;;5039778;28;19917;-65
2022/05/10 10:47:42;;;;;;;;;;;;;;;;;;5018489;28;19916;-65
2022/05/10 10:50:08;;;;;;;;;;;;;;;;;;5029305;28;20049;-65
2022/05/10 10:52:34;;;;;;;;;;;;;;;;;;5051713;28;20721;-65
2022/05/10 10:55:00;;;;;;;;;;;;;;;;;;5037324;28;19917;-65
2022/05/10 10:57:27;;;;;;;;;;;;;;;;;;5050336;28;19916;-65
2022/05/10 10:59:53;;;;;;;;;;;;;;;;;;5048880;28;19924;-65
2022/05/10 11:02:19;;;;;;;;;;;;;;;;;;5052673;28;19924;-65
2022/05/10 11:04:45;;;;;;;;;;;;;;;;;;5052798;28;19986;-65
2022/05/10 11:07:11;;;;;;;;;;;;;;;;;;5035920;28;19920;-65
2022/05/10 11:09:37;;;;;;;;;;;;;;;;;;5039372;28;19947;-65
2022/05/10 11:12:03;;;;;;;;;;;;;;;;;;5043112;28;19917;-64
2022/05/10 11:14:29;;;;;;;;;;;;;;;;;;5052844;28;19921;-65
2022/05/10 11:17:00;;;;;;;;;;;;;;;;;;5047754;28;19920;-64
2022/05/10 11:19:26;;;;;;;;;;;;;;;;;;5033902;28;19916;-63
2022/05/10 11:21:52;;;;;;;;;;;;;;;;;;5047808;28;20066;-65
2022/05/10 11:24:18;;;;;;;;;;;;;;;;;;5050907;28;20467;-65
2022/05/10 11:26:44;;;;;;;;;;;;;;;;;;5051410;28;19920;-65
2022/05/10 11:29:10;;;;;;;;;;;;;;;;;;5051116;28;19924;-65
2022/05/10 11:31:36;;;;;;;;;;;;;;;;;;5019095;28;19917;-64
2022/05/10 11:34:02;;;;;;;;;;;;;;;;;;5009023;28;20306;-64
2022/05/10 11:36:28;;;;;;;;;;;;;;;;;;5030859;28;19924;-65
2022/05/10 11:38:54;;;;;;;;;;;;;;;;;;5023273;28;19921;-64
2022/05/10 11:41:38;;;;;;;;;;;;;;;;;;5021268;28;19931;-66
2022/05/10 11:44:04;;;;;;;;;;;;;;;;;;5035843;28;20267;-65
2022/05/10 11:46:31;;;;;;;;;;;;;;;;;;5045399;28;19917;-63
2022/05/10 11:48:57;;;;;;;;;;;;;;;;;;5038268;28;20382;-63
2022/05/10 11:51:38;;;;;;;;;;;;;;;;;;5034941;28;19917;-63
2022/05/10 11:54:04;;;;;;;;;;;;;;;;;;5034513;28;19922;-64
2022/05/10 11:56:31;;;;;;;;;;;;;;;;;;5033004;28;19917;-63
2022/05/10 11:58:58;;;;;;;;;;;;;;;;;;5027313;28;20298;-63
2022/05/10 12:01:24;;;;;;;;;;;;;;;;;;5034946;28;19975;-65
2022/05/10 12:03:50;;;;;;;;;;;;;;;;;;5034066;28;19921;-64
2022/05/10 12:06:18;;;;;;;;;;;;;;;;;;5030272;28;19929;-65
2022/05/10 12:08:44;;;;;;;;;;;;;;;;;;5037655;28;19982;-64
2022/05/10 12:11:10;;;;;;;;;;;;;;;;;;5037331;28;19960;-65
2022/05/10 12:21:50;;;;;;;;;;;;;;;;;;5028764;28;20323;-65
2022/05/10 12:24:16;;;;;;;;;;;;;;;;;;5039915;28;19917;-63
2022/05/10 12:26:45;;;;;;;;;;;;;;;;;;5029558;28;20000;-65
2022/05/10 12:29:11;;;;;;;;;;;;;;;;;;5036742;28;19933;-65
2022/05/10 12:31:38;;;;;;;;;;;;;;;;;;5035010;28;19901;-65
2022/05/10 12:34:06;;;;;;;;;;;;;;;;;;5042188;28;20260;-66
2022/05/10 12:36:32;;;;;;;;;;;;;;;;;;5021172;28;19917;-66
2022/05/10 12:38:58;;;;;;;;;;;;;;;;;;5038097;28;19923;-64
2022/05/10 12:41:24;;;;;;;;;;;;;;;;;;5040295;28;19921;-64
2022/05/10 12:43:50;;;;;;;;;;;;;;;;;;5036326;28;19917;-63
2022/05/10 12:46:17;;;;;;;;;;;;;;;;;;5031775;28;19916;-65
2022/05/10 12:48:44;;;;;;;;;;;;;;;;;;5047325;28;19964;-64
2022/05/10 12:51:09;;;;;;;;;;;;;;;;;;5037134;28;19927;-65
2022/05/10 12:53:35;;;;;;;;;;;;;;;;;;5040645;28;19917;-65
2022/05/10 12:56:01;;;;;;;;;;;;;;;;;;5033823;28;19995;-66
2022/05/10 12:58:34;;;;;;;;;;;;;;;;;;5045871;28;19921;-64
2022/05/10 13:01:01;;;;;;;;;;;;;;;;;;5044855;28;19925;-65
2022/05/10 13:03:27;;;;;;;;;;;;;;;;;;5031931;28;19920;-64
2022/05/10 13:05:53;;;;;;;;;;;;;;;;;;5041084;28;20004;-65
2022/05/10 13:08:19;;;;;;;;;;;;;;;;;;5021553;28;20406;-65
2022/05/10 13:10:45;;;;;;;;;;;;;;;;;;5049676;28;19924;-65
2022/05/10 13:13:11;;;;;;;;;;;;;;;;;;5044306;28;19948;-65
2022/05/10 13:15:37;;;;;;;;;;;;;;;;;;5034249;28;20077;-65
2022/05/10 13:18:03;;;;;;;;;;;;;;;;;;5042898;28;19924;-66
2022/05/10 13:20:29;;;;;;;;;;;;;;;;;;5039809;28;19940;-66
2022/05/10 13:22:55;;;;;;;;;;;;;;;;;;5050254;28;19925;-66
2022/05/10 13:25:21;;;;;;;;;;;;;;;;;;5044240;28;19928;-68
2022/05/10 13:27:47;;;;;;;;;;;;;;;;;;5020806;28;20371;-66
2022/05/10 13:30:14;;;;;;;;;;;;;;;;;;5033867;28;20028;-65
2022/05/10 13:32:41;;;;;;;;;;;;;;;;;;5035706;28;19924;-64
2022/05/10 13:35:07;;;;;;;;;;;;;;;;;;5033425;28;19928;-65
2022/05/10 13:37:33;;;;;;;;;;;;;;;;;;5041072;28;20015;-65
2022/05/10 13:39:59;;;;;;;;;;;;;;;;;;5036880;28;19921;-65
2022/05/10 13:42:25;;;;;;;;;;;;;;;;;;5039357;28;19917;-66
2022/05/10 13:44:51;;;;;;;;;;;;;;;;;;5043503;28;19917;-66
2022/05/10 13:47:17;;;;;;;;;;;;;;;;;;5045363;28;19921;-66
2022/05/10 13:49:44;;;;;;;;;;;;;;;;;;5016405;28;19921;-66
2022/05/10 13:52:10;;;;;;;;;;;;;;;;;;5028220;28;19921;-64
2022/05/10 13:54:37;;;;;;;;;;;;;;;;;;5019285;28;19920;-65
2022/05/10 13:57:03;;;;;;;;;;;;;;;;;;5030758;28;19940;-66
2022/05/10 13:59:29;;;;;;;;;;;;;;;;;;5028375;28;20344;-65
2022/05/10 14:01:56;;;;;;;;;;;;;;;;;;5047057;28;19962;-64
2022/05/10 14:04:22;;;;;;;;;;;;;;;;;;5034570;28;20838;-66
2022/05/10 14:06:48;;;;;;;;;;;;;;;;;;5038266;28;19956;-70
2022/05/10 14:09:14;;;;;;;;;;;;;;;;;;5036746;28;19955;-69
2022/05/10 14:11:41;;;;;;;;;;;;;;;;;;5015227;28;19967;-71
2022/05/10 14:14:08;;;;;;;;;;;;;;;;;;5045421;28;19927;-71
2022/05/10 14:16:34;;;;;;;;;;;;;;;;;;5036650;28;19942;-71
2022/05/10 14:19:01;;;;;;;;;;;;;;;;;;5046921;28;19924;-70
2022/05/10 14:21:27;;;;;;;;;;;;;;;;;;5051280;28;19946;-70
2022/05/10 14:23:53;;;;;;;;;;;;;;;;;;5051667;28;19921;-70
2022/05/10 14:26:19;;;;;;;;;;;;;;;;;;5051843;28;19936;-71
2022/05/10 14:28:45;;;;;;;;;;;;;;;;;;5050843;28;20055;-72
2022/05/10 14:31:11;;;;;;;;;;;;;;;;;;5052814;28;19944;-70
2022/05/10 14:33:37;;;;;;;;;;;;;;;;;;5034550;28;20294;-71
2022/05/10 14:36:05;;;;;;;;;;;;;;;;;;5042001;28;19917;-71
2022/05/10 14:38:33;;;;;;;;;;;;;;;;;;5035422;28;19928;-70
2022/05/10 14:40:59;;;;;;;;;;;;;;;;;;5051860;28;19975;-71
2022/05/10 14:43:25;;;;;;;;;;;;;;;;;;5051895;28;19917;-70
2022/05/10 14:45:51;;;;;;;;;;;;;;;;;;5046929;28;20029;-69
2022/05/10 14:48:17;;;;;;;;;;;;;;;;;;5052159;28;19967;-73
2022/05/10 14:50:43;;;;;;;;;;;;;;;;;;5016525;28;19928;-69
2022/05/10 14:53:10;;;;;;;;;;;;;;;;;;5039558;28;19963;-70
2022/05/10 14:55:36;;;;;;;;;;;;;;;;;;5033778;28;19917;-71
2022/05/10 14:58:07;;;;;;;;;;;;;;;;;;5050601;28;19923;-70
2022/05/10 15:00:38;;;;;;;;;;;;;;;;;;5051967;28;19924;-71
2022/05/10 15:03:05;;;;;;;;;;;;;;;;;;5051538;28;19916;-72
2022/05/10 15:05:31;;;;;;;;;;;;;;;;;;5033032;28;19927;-71
2022/05/10 15:07:58;;;;;;;;;;;;;;;;;;5034574;28;19925;-71
2022/05/10 15:10:24;;;;;;;;;;;;;;;;;;5033727;28;20031;-71
2022/05/10 15:13:03;;;;;;;;;;;;;;;;;;5051943;28;19916;-71
2022/05/10 15:15:29;;;;;;;;;;;;;;;;;;5052040;28;19924;-71
2022/05/10 15:20:40;;;;;;;;;;;;;;;;;;5051934;28;20615;-71
2022/05/10 15:23:06;;;;;;;;;;;;;;;;;;5051777;28;19920;-72
2022/05/10 15:25:32;;;;;;;;;;;;;;;;;;5048565;28;19917;-72
2022/05/10 15:27:59;;;;;;;;;;;;;;;;;;5031784;28;19921;-71
2022/05/10 15:30:25;;;;;;;;;;;;;;;;;;5032099;28;19959;-73
2022/05/10 15:32:51;;;;;;;;;;;;;;;;;;5031410;28;20332;-72
2022/05/10 15:35:17;;;;;;;;;;;;;;;;;;5014304;28;19917;-72
2022/05/10 15:37:45;;;;;;;;;;;;;;;;;;5015394;28;19917;-73
2022/05/10 15:40:11;;;;;;;;;;;;;;;;;;5032317;28;19925;-72
2022/05/10 15:42:37;;;;;;;;;;;;;;;;;;5013984;28;19924;-72
2022/05/10 15:45:03;;;;;;;;;;;;;;;;;;5032855;28;19917;-72
2022/05/10 15:47:30;;;;;;;;;;;;;;;;;;5031318;28;19927;-72
2022/05/10 15:49:56;;;;;;;;;;;;;;;;;;5030436;28;19928;-72
2022/05/10 15:52:22;;;;;;;;;;;;;;;;;;5014413;28;20376;-72
2022/05/10 15:54:48;;;;;;;;;;;;;;;;;;5032880;28;19992;-72
2022/05/10 15:57:15;;;;;;;;;;;;;;;;;;5031922;28;19917;-72
2022/05/10 15:59:41;;;;;;;;;;;;;;;;;;5014181;28;19928;-72
2022/05/10 16:02:07;;;;;;;;;;;;;;;;;;5032417;28;19921;-72
2022/05/10 16:04:33;;;;;;;;;;;;;;;;;;5013950;28;19925;-72
2022/05/10 16:06:59;;;;;;;;;;;;;;;;;;5032420;28;19917;-72
2022/05/10 16:09:25;;;;;;;;;;;;;;;;;;5030661;28;19923;-72
2022/05/10 16:11:53;;;;;;;;;;;;;;;;;;5032116;28;19921;-72
2022/05/10 16:14:19;;;;;;;;;;;;;;;;;;5032078;28;19917;-72
2022/05/10 16:16:45;;;;;;;;;;;;;;;;;;5014522;28;19923;-72
2022/05/10 16:19:11;;;;;;;;;;;;;;;;;;5030157;28;19946;-72
2022/05/10 16:21:37;;;;;;;;;;;;;;;;;;5030653;28;19967;-72
2022/05/10 16:24:03;;;;;;;;;;;;;;;;;;5032076;28;19925;-72
2022/05/10 16:31:58;;;;;;;;;;;;;;;;;;5036802;28;20424;-73
2022/05/10 16:34:24;;;;;;;;;;;;;;;;;;5037260;28;19917;-72
2022/05/10 16:36:52;;;;;;;;;;;;;;;;;;5055731;28;19974;-72
2022/05/10 16:39:18;;;;;;;;;;;;;;;;;;5037656;28;19924;-72
2022/05/10 16:41:44;;;;;;;;;;;;;;;;;;5037040;28;19923;-73
2022/05/10 16:44:13;;;;;;;;;;;;;;;;;;5037995;28;20464;-72
2022/05/10 16:46:39;;;;;;;;;;;;;;;;;;5038184;28;19938;-72
2022/05/10 16:49:05;;;;;;;;;;;;;;;;;;5020664;28;19921;-72
2022/05/10 16:51:31;;;;;;;;;;;;;;;;;;5037883;28;19966;-72
2022/05/10 16:54:11;;;;;;;;;;;;;;;;;;5037667;28;19916;-72
2022/05/10 16:56:38;;;;;;;;;;;;;;;;;;5036646;28;20290;-72
2022/05/10 16:59:05;;;;;;;;;;;;;;;;;;5036989;28;19928;-72
2022/05/10 17:01:32;;;;;;;;;;;;;;;;;;5037195;28;19921;-72
2022/05/10 17:03:58;;;;;;;;;;;;;;;;;;5036688;28;19916;-72
2022/05/10 17:06:24;;;;;;;;;;;;;;;;;;5055044;28;20291;-72